sensor_id;sensor_type;location;lat;lon;timestamp;P1;durP1;ratioP1;P2;durP2;ratioP2
13698;SDS011;6921;53.642;9.956;2023-02-28T00:00:42;3.43;;;2.17;;
13698;SDS011;6921;53.642;9.956;2023-02-28T00:02:45;3.40;;;2.27;;
13698;SDS011;6921;53.642;9.956;2023-02-28T00:04:49;2.33;;;1.83;;
13698;SDS011;6921;53.642;9.956;2023-02-28T00:06:55;4.67;;;1.87;;
13698;SDS011;6921;53.642;9.956;2023-02-28T00:08:59;3.53;;;1.90;;
13698;SDS011;6921;53.642;9.956;2023-02-28T00:11:03;3.83;;;1.90;;
13698;SDS011;6921;53.642;9.956;2023-02-28T00:13:06;3.73;;;2.00;;
13698;SDS011;6921;53.642;9.956;2023-02-28T00:15:10;4.00;;;2.00;;
13698;SDS011;6921;53.642;9.956;2023-02-28T00:17:13;3.07;;;1.83;;
13698;SDS011;6921;53.642;9.956;2023-02-28T00:19:18;2.07;;;1.63;;
13698;SDS011;6921;53.642;9.956;2023-02-28T00:21:22;4.83;;;1.80;;
13698;SDS011;6921;53.642;9.956;2023-02-28T00:23:26;6.40;;;1.97;;
13698;SDS011;6921;53.642;9.956;2023-02-28T00:25:30;4.20;;;1.90;;
13698;SDS011;6921;53.642;9.956;2023-02-28T00:27:33;5.67;;;2.00;;
13698;SDS011;6921;53.642;9.956;2023-02-28T00:29:36;5.13;;;1.87;;
13698;SDS011;6921;53.642;9.956;2023-02-28T00:31:40;3.93;;;2.10;;
13698;SDS011;6921;53.642;9.956;2023-02-28T00:33:43;2.77;;;1.80;;
13698;SDS011;6921;53.642;9.956;2023-02-28T00:38:52;5.37;;;1.80;;
13698;SDS011;6921;53.642;9.956;2023-02-28T00:40:56;5.00;;;2.00;;
13698;SDS011;6921;53.642;9.956;2023-02-28T00:42:59;3.57;;;1.70;;
13698;SDS011;6921;53.642;9.956;2023-02-28T00:45:03;5.23;;;2.00;;
13698;SDS011;6921;53.642;9.956;2023-02-28T00:47:06;3.83;;;1.93;;
13698;SDS011;6921;53.642;9.956;2023-02-28T00:49:10;2.87;;;1.60;;
13698;SDS011;6921;53.642;9.956;2023-02-28T00:51:13;3.53;;;1.87;;
13698;SDS011;6921;53.642;9.956;2023-02-28T00:53:16;4.57;;;2.03;;
13698;SDS011;6921;53.642;9.956;2023-02-28T00:55:21;5.87;;;1.90;;
13698;SDS011;6921;53.642;9.956;2023-02-28T00:57:25;2.57;;;1.80;;
13698;SDS011;6921;53.642;9.956;2023-02-28T00:59:28;4.27;;;2.03;;
13698;SDS011;6921;53.642;9.956;2023-02-28T01:01:32;4.30;;;2.03;;
13698;SDS011;6921;53.642;9.956;2023-02-28T01:03:35;3.33;;;2.03;;
13698;SDS011;6921;53.642;9.956;2023-02-28T01:05:39;4.80;;;2.00;;
13698;SDS011;6921;53.642;9.956;2023-02-28T01:07:43;3.37;;;2.10;;
13698;SDS011;6921;53.642;9.956;2023-02-28T01:09:46;3.47;;;1.70;;
13698;SDS011;6921;53.642;9.956;2023-02-28T01:11:51;3.63;;;2.00;;
13698;SDS011;6921;53.642;9.956;2023-02-28T01:13:54;8.10;;;2.30;;
13698;SDS011;6921;53.642;9.956;2023-02-28T01:15:57;3.00;;;2.03;;
13698;SDS011;6921;53.642;9.956;2023-02-28T01:18:01;7.67;;;2.20;;
13698;SDS011;6921;53.642;9.956;2023-02-28T01:20:04;5.17;;;2.60;;
13698;SDS011;6921;53.642;9.956;2023-02-28T01:22:08;3.97;;;2.50;;
13698;SDS011;6921;53.642;9.956;2023-02-28T01:24:11;3.17;;;1.90;;
13698;SDS011;6921;53.642;9.956;2023-02-28T01:26:15;3.83;;;2.00;;
13698;SDS011;6921;53.642;9.956;2023-02-28T01:28:20;5.20;;;1.97;;
13698;SDS011;6921;53.642;9.956;2023-02-28T01:30:23;2.73;;;1.90;;
13698;SDS011;6921;53.642;9.956;2023-02-28T01:32:27;4.00;;;2.23;;
13698;SDS011;6921;53.642;9.956;2023-02-28T01:34:30;3.97;;;2.47;;
13698;SDS011;6921;53.642;9.956;2023-02-28T01:36:33;5.30;;;2.50;;
13698;SDS011;6921;53.642;9.956;2023-02-28T01:38:37;3.50;;;2.60;;
13698;SDS011;6921;53.642;9.956;2023-02-28T01:40:40;3.40;;;2.33;;
13698;SDS011;6921;53.642;9.956;2023-02-28T01:42:44;3.60;;;2.30;;
13698;SDS011;6921;53.642;9.956;2023-02-28T01:44:57;3.47;;;2.03;;
13698;SDS011;6921;53.642;9.956;2023-02-28T01:47:00;4.77;;;2.00;;
13698;SDS011;6921;53.642;9.956;2023-02-28T01:49:05;4.73;;;1.80;;
13698;SDS011;6921;53.642;9.956;2023-02-28T01:51:10;3.93;;;2.00;;
13698;SDS011;6921;53.642;9.956;2023-02-28T01:53:15;3.87;;;1.50;;
13698;SDS011;6921;53.642;9.956;2023-02-28T01:55:19;2.50;;;1.87;;
13698;SDS011;6921;53.642;9.956;2023-02-28T01:57:25;3.17;;;1.70;;
13698;SDS011;6921;53.642;9.956;2023-02-28T01:59:33;3.33;;;1.70;;
13698;SDS011;6921;53.642;9.956;2023-02-28T02:01:38;3.60;;;1.90;;
13698;SDS011;6921;53.642;9.956;2023-02-28T02:03:41;5.80;;;1.83;;
13698;SDS011;6921;53.642;9.956;2023-02-28T02:05:45;4.90;;;1.70;;
13698;SDS011;6921;53.642;9.956;2023-02-28T02:07:50;5.80;;;2.00;;
13698;SDS011;6921;53.642;9.956;2023-02-28T02:09:59;4.20;;;1.67;;
13698;SDS011;6921;53.642;9.956;2023-02-28T02:12:05;2.87;;;1.80;;
13698;SDS011;6921;53.642;9.956;2023-02-28T02:14:18;3.43;;;1.87;;
13698;SDS011;6921;53.642;9.956;2023-02-28T02:16:32;1.93;;;1.40;;
13698;SDS011;6921;53.642;9.956;2023-02-28T02:18:40;4.40;;;1.80;;
13698;SDS011;6921;53.642;9.956;2023-02-28T02:23:17;2.70;;;1.83;;
13698;SDS011;6921;53.642;9.956;2023-02-28T02:25:27;2.77;;;1.70;;
13698;SDS011;6921;53.642;9.956;2023-02-28T02:27:39;2.93;;;1.60;;
13698;SDS011;6921;53.642;9.956;2023-02-28T02:34:55;2.60;;;1.50;;
13698;SDS011;6921;53.642;9.956;2023-02-28T02:37:02;4.70;;;1.80;;
13698;SDS011;6921;53.642;9.956;2023-02-28T02:39:09;3.17;;;1.80;;
13698;SDS011;6921;53.642;9.956;2023-02-28T02:41:16;3.33;;;1.70;;
13698;SDS011;6921;53.642;9.956;2023-02-28T02:43:22;3.50;;;1.73;;
13698;SDS011;6921;53.642;9.956;2023-02-28T02:45:30;3.20;;;1.60;;
13698;SDS011;6921;53.642;9.956;2023-02-28T02:47:37;3.17;;;1.80;;
13698;SDS011;6921;53.642;9.956;2023-02-28T02:49:42;3.03;;;1.70;;
13698;SDS011;6921;53.642;9.956;2023-02-28T02:51:47;2.83;;;1.70;;
13698;SDS011;6921;53.642;9.956;2023-02-28T02:53:52;2.57;;;1.60;;
13698;SDS011;6921;53.642;9.956;2023-02-28T02:55:57;3.60;;;1.70;;
13698;SDS011;6921;53.642;9.956;2023-02-28T02:58:02;4.00;;;1.77;;
13698;SDS011;6921;53.642;9.956;2023-02-28T03:00:06;3.70;;;2.00;;
13698;SDS011;6921;53.642;9.956;2023-02-28T03:02:12;2.70;;;1.63;;
13698;SDS011;6921;53.642;9.956;2023-02-28T03:04:18;1.60;;;1.47;;
13698;SDS011;6921;53.642;9.956;2023-02-28T03:06:22;2.27;;;1.50;;
13698;SDS011;6921;53.642;9.956;2023-02-28T03:08:28;4.07;;;1.50;;
13698;SDS011;6921;53.642;9.956;2023-02-28T03:10:34;3.93;;;1.70;;
13698;SDS011;6921;53.642;9.956;2023-02-28T03:12:39;3.00;;;1.80;;
13698;SDS011;6921;53.642;9.956;2023-02-28T03:14:47;3.53;;;2.10;;
13698;SDS011;6921;53.642;9.956;2023-02-28T03:16:58;2.83;;;1.83;;
13698;SDS011;6921;53.642;9.956;2023-02-28T03:19:13;3.30;;;1.77;;
13698;SDS011;6921;53.642;9.956;2023-02-28T03:21:30;4.10;;;1.80;;
13698;SDS011;6921;53.642;9.956;2023-02-28T03:23:38;2.90;;;1.50;;
13698;SDS011;6921;53.642;9.956;2023-02-28T03:25:48;4.30;;;2.17;;
13698;SDS011;6921;53.642;9.956;2023-02-28T03:27:58;3.13;;;2.50;;
13698;SDS011;6921;53.642;9.956;2023-02-28T03:30:04;4.43;;;1.97;;
13698;SDS011;6921;53.642;9.956;2023-02-28T03:32:11;9.07;;;2.00;;
13698;SDS011;6921;53.642;9.956;2023-02-28T03:34:19;3.73;;;2.20;;
13698;SDS011;6921;53.642;9.956;2023-02-28T03:36:26;4.73;;;1.83;;
13698;SDS011;6921;53.642;9.956;2023-02-28T03:38:31;3.33;;;2.00;;
13698;SDS011;6921;53.642;9.956;2023-02-28T03:40:38;3.70;;;1.80;;
13698;SDS011;6921;53.642;9.956;2023-02-28T03:42:44;5.73;;;2.03;;
13698;SDS011;6921;53.642;9.956;2023-02-28T03:44:50;4.03;;;1.90;;
13698;SDS011;6921;53.642;9.956;2023-02-28T03:46:55;3.57;;;1.90;;
13698;SDS011;6921;53.642;9.956;2023-02-28T03:49:00;2.33;;;1.73;;
13698;SDS011;6921;53.642;9.956;2023-02-28T03:51:06;2.63;;;1.90;;
13698;SDS011;6921;53.642;9.956;2023-02-28T03:53:13;3.57;;;1.77;;
13698;SDS011;6921;53.642;9.956;2023-02-28T03:55:17;6.37;;;2.17;;
13698;SDS011;6921;53.642;9.956;2023-02-28T03:57:24;3.57;;;2.20;;
13698;SDS011;6921;53.642;9.956;2023-02-28T03:59:30;5.47;;;2.20;;
13698;SDS011;6921;53.642;9.956;2023-02-28T04:01:36;3.50;;;2.33;;
13698;SDS011;6921;53.642;9.956;2023-02-28T04:03:42;4.10;;;2.30;;
13698;SDS011;6921;53.642;9.956;2023-02-28T04:05:46;3.30;;;2.17;;
13698;SDS011;6921;53.642;9.956;2023-02-28T04:07:51;5.43;;;2.30;;
13698;SDS011;6921;53.642;9.956;2023-02-28T04:09:56;3.57;;;2.20;;
13698;SDS011;6921;53.642;9.956;2023-02-28T04:11:59;4.13;;;2.37;;
13698;SDS011;6921;53.642;9.956;2023-02-28T04:14:04;6.07;;;2.37;;
13698;SDS011;6921;53.642;9.956;2023-02-28T04:16:08;3.73;;;2.30;;
13698;SDS011;6921;53.642;9.956;2023-02-28T04:18:21;5.77;;;2.33;;
13698;SDS011;6921;53.642;9.956;2023-02-28T04:20:25;4.40;;;2.50;;
13698;SDS011;6921;53.642;9.956;2023-02-28T04:22:28;3.77;;;2.20;;
13698;SDS011;6921;53.642;9.956;2023-02-28T04:24:31;3.97;;;2.30;;
13698;SDS011;6921;53.642;9.956;2023-02-28T04:26:36;3.63;;;2.00;;
13698;SDS011;6921;53.642;9.956;2023-02-28T04:28:39;6.33;;;2.20;;
13698;SDS011;6921;53.642;9.956;2023-02-28T04:30:44;4.33;;;2.40;;
13698;SDS011;6921;53.642;9.956;2023-02-28T04:32:47;5.60;;;2.73;;
13698;SDS011;6921;53.642;9.956;2023-02-28T04:34:51;3.00;;;2.33;;
13698;SDS011;6921;53.642;9.956;2023-02-28T04:36:54;3.33;;;2.30;;
13698;SDS011;6921;53.642;9.956;2023-02-28T04:39:12;5.37;;;2.53;;
13698;SDS011;6921;53.642;9.956;2023-02-28T04:41:16;4.83;;;2.50;;
13698;SDS011;6921;53.642;9.956;2023-02-28T04:43:19;4.73;;;2.23;;
13698;SDS011;6921;53.642;9.956;2023-02-28T04:45:22;5.17;;;2.70;;
13698;SDS011;6921;53.642;9.956;2023-02-28T04:47:27;4.60;;;2.60;;
13698;SDS011;6921;53.642;9.956;2023-02-28T04:49:30;4.10;;;2.63;;
13698;SDS011;6921;53.642;9.956;2023-02-28T04:51:34;4.40;;;2.60;;
13698;SDS011;6921;53.642;9.956;2023-02-28T04:53:37;3.53;;;2.40;;
13698;SDS011;6921;53.642;9.956;2023-02-28T04:55:41;4.33;;;2.37;;
13698;SDS011;6921;53.642;9.956;2023-02-28T04:57:44;4.30;;;2.93;;
13698;SDS011;6921;53.642;9.956;2023-02-28T04:59:48;4.97;;;2.60;;
13698;SDS011;6921;53.642;9.956;2023-02-28T05:01:51;4.13;;;2.60;;
13698;SDS011;6921;53.642;9.956;2023-02-28T05:03:56;6.27;;;2.90;;
13698;SDS011;6921;53.642;9.956;2023-02-28T05:06:00;4.53;;;2.77;;
13698;SDS011;6921;53.642;9.956;2023-02-28T05:08:03;3.47;;;2.47;;
13698;SDS011;6921;53.642;9.956;2023-02-28T05:10:07;5.97;;;2.50;;
13698;SDS011;6921;53.642;9.956;2023-02-28T05:12:10;5.50;;;3.20;;
13698;SDS011;6921;53.642;9.956;2023-02-28T05:14:14;7.00;;;2.67;;
13698;SDS011;6921;53.642;9.956;2023-02-28T05:16:17;4.53;;;2.90;;
13698;SDS011;6921;53.642;9.956;2023-02-28T05:18:21;4.20;;;2.70;;
13698;SDS011;6921;53.642;9.956;2023-02-28T05:20:26;5.30;;;2.73;;
13698;SDS011;6921;53.642;9.956;2023-02-28T05:22:29;4.87;;;3.03;;
13698;SDS011;6921;53.642;9.956;2023-02-28T05:24:33;4.47;;;3.00;;
13698;SDS011;6921;53.642;9.956;2023-02-28T05:26:36;4.20;;;2.80;;
13698;SDS011;6921;53.642;9.956;2023-02-28T05:28:40;3.97;;;2.80;;
13698;SDS011;6921;53.642;9.956;2023-02-28T05:30:43;4.30;;;2.97;;
13698;SDS011;6921;53.642;9.956;2023-02-28T05:32:49;7.43;;;3.17;;
13698;SDS011;6921;53.642;9.956;2023-02-28T05:34:53;7.00;;;3.10;;
13698;SDS011;6921;53.642;9.956;2023-02-28T05:36:57;4.33;;;2.93;;
13698;SDS011;6921;53.642;9.956;2023-02-28T05:39:01;5.90;;;3.10;;
13698;SDS011;6921;53.642;9.956;2023-02-28T05:41:05;4.60;;;2.83;;
13698;SDS011;6921;53.642;9.956;2023-02-28T05:43:09;4.53;;;2.90;;
13698;SDS011;6921;53.642;9.956;2023-02-28T05:45:13;3.00;;;2.47;;
13698;SDS011;6921;53.642;9.956;2023-02-28T05:47:17;5.93;;;2.90;;
13698;SDS011;6921;53.642;9.956;2023-02-28T05:49:20;3.67;;;2.60;;
13698;SDS011;6921;53.642;9.956;2023-02-28T05:51:23;7.73;;;3.20;;
13698;SDS011;6921;53.642;9.956;2023-02-28T05:53:28;5.07;;;3.30;;
13698;SDS011;6921;53.642;9.956;2023-02-28T05:55:32;6.87;;;3.23;;
13698;SDS011;6921;53.642;9.956;2023-02-28T05:57:37;5.70;;;3.30;;
13698;SDS011;6921;53.642;9.956;2023-02-28T05:59:40;6.93;;;3.30;;
13698;SDS011;6921;53.642;9.956;2023-02-28T06:01:44;5.40;;;3.00;;
13698;SDS011;6921;53.642;9.956;2023-02-28T06:03:50;6.33;;;3.50;;
13698;SDS011;6921;53.642;9.956;2023-02-28T06:05:53;6.50;;;3.20;;
13698;SDS011;6921;53.642;9.956;2023-02-28T06:07:57;4.60;;;3.20;;
13698;SDS011;6921;53.642;9.956;2023-02-28T06:10:01;7.00;;;3.90;;
13698;SDS011;6921;53.642;9.956;2023-02-28T06:12:05;3.87;;;3.30;;
13698;SDS011;6921;53.642;9.956;2023-02-28T06:14:12;6.17;;;3.67;;
13698;SDS011;6921;53.642;9.956;2023-02-28T06:16:17;6.63;;;3.57;;
13698;SDS011;6921;53.642;9.956;2023-02-28T06:18:20;5.87;;;3.60;;
13698;SDS011;6921;53.642;9.956;2023-02-28T06:20:24;5.90;;;3.33;;
13698;SDS011;6921;53.642;9.956;2023-02-28T06:22:30;5.63;;;3.57;;
13698;SDS011;6921;53.642;9.956;2023-02-28T06:24:33;5.33;;;3.47;;
13698;SDS011;6921;53.642;9.956;2023-02-28T06:26:38;7.07;;;3.37;;
13698;SDS011;6921;53.642;9.956;2023-02-28T06:28:41;5.70;;;3.40;;
13698;SDS011;6921;53.642;9.956;2023-02-28T06:30:45;9.40;;;3.53;;
13698;SDS011;6921;53.642;9.956;2023-02-28T06:32:48;6.23;;;3.43;;
13698;SDS011;6921;53.642;9.956;2023-02-28T06:34:51;5.53;;;3.37;;
13698;SDS011;6921;53.642;9.956;2023-02-28T06:36:55;5.50;;;3.60;;
13698;SDS011;6921;53.642;9.956;2023-02-28T06:39:03;4.17;;;3.53;;
13698;SDS011;6921;53.642;9.956;2023-02-28T06:41:06;6.33;;;3.83;;
13698;SDS011;6921;53.642;9.956;2023-02-28T06:43:11;8.27;;;3.90;;
13698;SDS011;6921;53.642;9.956;2023-02-28T06:45:15;6.80;;;3.67;;
13698;SDS011;6921;53.642;9.956;2023-02-28T06:47:19;8.33;;;4.10;;
13698;SDS011;6921;53.642;9.956;2023-02-28T06:49:22;7.20;;;4.00;;
13698;SDS011;6921;53.642;9.956;2023-02-28T06:51:28;9.90;;;4.30;;
13698;SDS011;6921;53.642;9.956;2023-02-28T06:53:32;5.83;;;3.73;;
13698;SDS011;6921;53.642;9.956;2023-02-28T06:55:37;7.90;;;3.80;;
13698;SDS011;6921;53.642;9.956;2023-02-28T06:57:40;7.73;;;3.73;;
13698;SDS011;6921;53.642;9.956;2023-02-28T06:59:45;5.33;;;3.50;;
13698;SDS011;6921;53.642;9.956;2023-02-28T07:01:48;6.70;;;3.80;;
13698;SDS011;6921;53.642;9.956;2023-02-28T07:03:52;8.53;;;3.97;;
13698;SDS011;6921;53.642;9.956;2023-02-28T07:05:55;6.23;;;4.10;;
13698;SDS011;6921;53.642;9.956;2023-02-28T07:07:58;9.00;;;3.73;;
13698;SDS011;6921;53.642;9.956;2023-02-28T07:10:02;7.13;;;3.87;;
13698;SDS011;6921;53.642;9.956;2023-02-28T07:12:05;7.07;;;4.10;;
13698;SDS011;6921;53.642;9.956;2023-02-28T07:14:09;7.83;;;4.10;;
13698;SDS011;6921;53.642;9.956;2023-02-28T07:16:13;7.70;;;4.33;;
13698;SDS011;6921;53.642;9.956;2023-02-28T07:18:17;6.87;;;4.67;;
13698;SDS011;6921;53.642;9.956;2023-02-28T07:20:20;7.03;;;4.80;;
13698;SDS011;6921;53.642;9.956;2023-02-28T07:22:24;8.57;;;4.70;;
13698;SDS011;6921;53.642;9.956;2023-02-28T07:24:27;7.70;;;4.93;;
13698;SDS011;6921;53.642;9.956;2023-02-28T07:26:31;7.40;;;4.87;;
13698;SDS011;6921;53.642;9.956;2023-02-28T07:28:35;6.83;;;4.83;;
13698;SDS011;6921;53.642;9.956;2023-02-28T07:30:39;8.20;;;5.00;;
13698;SDS011;6921;53.642;9.956;2023-02-28T07:32:44;7.40;;;4.70;;
13698;SDS011;6921;53.642;9.956;2023-02-28T07:34:47;7.93;;;5.07;;
13698;SDS011;6921;53.642;9.956;2023-02-28T07:36:52;7.63;;;5.40;;
13698;SDS011;6921;53.642;9.956;2023-02-28T07:38:55;10.67;;;5.63;;
13698;SDS011;6921;53.642;9.956;2023-02-28T07:40:59;8.33;;;5.67;;
13698;SDS011;6921;53.642;9.956;2023-02-28T07:43:05;8.07;;;5.63;;
13698;SDS011;6921;53.642;9.956;2023-02-28T07:45:09;11.43;;;6.17;;
13698;SDS011;6921;53.642;9.956;2023-02-28T07:47:13;9.60;;;5.90;;
13698;SDS011;6921;53.642;9.956;2023-02-28T07:49:17;7.63;;;5.60;;
13698;SDS011;6921;53.642;9.956;2023-02-28T07:51:22;8.83;;;6.27;;
13698;SDS011;6921;53.642;9.956;2023-02-28T07:53:25;9.97;;;5.80;;
13698;SDS011;6921;53.642;9.956;2023-02-28T07:55:28;10.50;;;5.57;;
13698;SDS011;6921;53.642;9.956;2023-02-28T07:57:32;11.17;;;5.70;;
13698;SDS011;6921;53.642;9.956;2023-02-28T07:59:35;10.10;;;6.00;;
13698;SDS011;6921;53.642;9.956;2023-02-28T08:01:38;9.07;;;5.23;;
13698;SDS011;6921;53.642;9.956;2023-02-28T08:03:42;8.67;;;5.27;;
13698;SDS011;6921;53.642;9.956;2023-02-28T08:05:47;7.70;;;5.27;;
13698;SDS011;6921;53.642;9.956;2023-02-28T08:07:50;8.40;;;5.03;;
13698;SDS011;6921;53.642;9.956;2023-02-28T08:09:54;8.37;;;4.80;;
13698;SDS011;6921;53.642;9.956;2023-02-28T08:11:58;7.87;;;4.40;;
13698;SDS011;6921;53.642;9.956;2023-02-28T08:14:01;6.60;;;4.50;;
13698;SDS011;6921;53.642;9.956;2023-02-28T08:16:05;7.37;;;4.67;;
13698;SDS011;6921;53.642;9.956;2023-02-28T08:18:09;8.27;;;4.27;;
13698;SDS011;6921;53.642;9.956;2023-02-28T08:20:12;6.33;;;3.53;;
13698;SDS011;6921;53.642;9.956;2023-02-28T08:22:17;6.53;;;3.57;;
13698;SDS011;6921;53.642;9.956;2023-02-28T08:24:20;6.17;;;3.93;;
13698;SDS011;6921;53.642;9.956;2023-02-28T08:26:24;8.13;;;4.03;;
13698;SDS011;6921;53.642;9.956;2023-02-28T08:28:27;7.33;;;4.00;;
13698;SDS011;6921;53.642;9.956;2023-02-28T08:30:31;7.03;;;3.60;;
13698;SDS011;6921;53.642;9.956;2023-02-28T08:32:34;5.83;;;3.80;;
13698;SDS011;6921;53.642;9.956;2023-02-28T08:34:38;5.93;;;3.30;;
13698;SDS011;6921;53.642;9.956;2023-02-28T08:36:42;6.23;;;2.93;;
13698;SDS011;6921;53.642;9.956;2023-02-28T08:38:48;3.87;;;2.80;;
13698;SDS011;6921;53.642;9.956;2023-02-28T08:40:56;6.43;;;2.50;;
13698;SDS011;6921;53.642;9.956;2023-02-28T08:43:01;5.33;;;3.00;;
13698;SDS011;6921;53.642;9.956;2023-02-28T08:45:04;4.23;;;2.40;;
13698;SDS011;6921;53.642;9.956;2023-02-28T08:47:08;2.80;;;2.20;;
13698;SDS011;6921;53.642;9.956;2023-02-28T08:49:11;4.13;;;2.07;;
13698;SDS011;6921;53.642;9.956;2023-02-28T08:51:15;2.63;;;2.17;;
13698;SDS011;6921;53.642;9.956;2023-02-28T08:53:23;2.07;;;1.70;;
13698;SDS011;6921;53.642;9.956;2023-02-28T08:55:28;1.67;;;1.57;;
13698;SDS011;6921;53.642;9.956;2023-02-28T08:57:31;3.83;;;1.93;;
13698;SDS011;6921;53.642;9.956;2023-02-28T08:59:35;2.70;;;1.80;;
13698;SDS011;6921;53.642;9.956;2023-02-28T09:01:38;2.10;;;1.90;;
13698;SDS011;6921;53.642;9.956;2023-02-28T09:03:43;3.60;;;2.07;;
13698;SDS011;6921;53.642;9.956;2023-02-28T09:05:54;2.40;;;1.90;;
13698;SDS011;6921;53.642;9.956;2023-02-28T09:07:57;3.47;;;2.00;;
13698;SDS011;6921;53.642;9.956;2023-02-28T09:10:01;1.80;;;1.50;;
13698;SDS011;6921;53.642;9.956;2023-02-28T09:12:06;3.87;;;1.97;;
13698;SDS011;6921;53.642;9.956;2023-02-28T09:14:10;2.40;;;1.40;;
13698;SDS011;6921;53.642;9.956;2023-02-28T09:16:14;3.87;;;1.70;;
13698;SDS011;6921;53.642;9.956;2023-02-28T09:18:18;4.87;;;1.60;;
13698;SDS011;6921;53.642;9.956;2023-02-28T09:20:21;3.38;;;1.70;;
13698;SDS011;6921;53.642;9.956;2023-02-28T09:22:24;4.63;;;1.57;;
13698;SDS011;6921;53.642;9.956;2023-02-28T09:24:28;1.80;;;1.17;;
13698;SDS011;6921;53.642;9.956;2023-02-28T09:26:33;2.23;;;1.27;;
13698;SDS011;6921;53.642;9.956;2023-02-28T09:28:43;2.87;;;1.33;;
13698;SDS011;6921;53.642;9.956;2023-02-28T09:30:47;3.60;;;1.40;;
13698;SDS011;6921;53.642;9.956;2023-02-28T09:32:52;39.93;;;3.90;;
13698;SDS011;6921;53.642;9.956;2023-02-28T09:34:55;3.33;;;1.17;;
13698;SDS011;6921;53.642;9.956;2023-02-28T09:36:59;1.93;;;1.20;;
13698;SDS011;6921;53.642;9.956;2023-02-28T09:39:02;1.87;;;1.20;;
13698;SDS011;6921;53.642;9.956;2023-02-28T09:41:10;1.57;;;1.23;;
13698;SDS011;6921;53.642;9.956;2023-02-28T09:43:16;2.77;;;1.40;;
13698;SDS011;6921;53.642;9.956;2023-02-28T09:45:24;1.53;;;1.10;;
13698;SDS011;6921;53.642;9.956;2023-02-28T09:47:31;1.67;;;1.37;;
13698;SDS011;6921;53.642;9.956;2023-02-28T09:49:37;1.80;;;1.20;;
13698;SDS011;6921;53.642;9.956;2023-02-28T09:51:45;2.80;;;1.50;;
13698;SDS011;6921;53.642;9.956;2023-02-28T09:53:53;3.20;;;1.23;;
13698;SDS011;6921;53.642;9.956;2023-02-28T09:56:03;2.20;;;1.50;;
13698;SDS011;6921;53.642;9.956;2023-02-28T09:58:08;1.57;;;1.17;;
13698;SDS011;6921;53.642;9.956;2023-02-28T10:00:24;2.07;;;1.80;;
13698;SDS011;6921;53.642;9.956;2023-02-28T10:02:41;2.85;;;1.83;;
13698;SDS011;6921;53.642;9.956;2023-02-28T10:04:50;2.63;;;1.63;;
13698;SDS011;6921;53.642;9.956;2023-02-28T10:06:57;2.70;;;1.50;;
13698;SDS011;6921;53.642;9.956;2023-02-28T10:09:02;4.27;;;1.70;;
13698;SDS011;6921;53.642;9.956;2023-02-28T10:11:06;3.17;;;1.60;;
13698;SDS011;6921;53.642;9.956;2023-02-28T10:13:15;2.27;;;1.60;;
13698;SDS011;6921;53.642;9.956;2023-02-28T10:15:25;1.77;;;1.33;;
13698;SDS011;6921;53.642;9.956;2023-02-28T10:17:35;1.47;;;1.30;;
13698;SDS011;6921;53.642;9.956;2023-02-28T10:19:51;2.70;;;1.67;;
13698;SDS011;6921;53.642;9.956;2023-02-28T10:22:03;2.60;;;1.50;;
13698;SDS011;6921;53.642;9.956;2023-02-28T10:24:16;3.63;;;1.50;;
13698;SDS011;6921;53.642;9.956;2023-02-28T10:26:24;3.65;;;1.65;;
13698;SDS011;6921;53.642;9.956;2023-02-28T10:28:30;2.95;;;1.85;;
13698;SDS011;6921;53.642;9.956;2023-02-28T10:30:36;2.35;;;1.60;;
13698;SDS011;6921;53.642;9.956;2023-02-28T10:32:43;2.78;;;1.75;;
13698;SDS011;6921;53.642;9.956;2023-02-28T10:34:51;2.13;;;1.40;;
13698;SDS011;6921;53.642;9.956;2023-02-28T10:36:55;4.40;;;1.70;;
13698;SDS011;6921;53.642;9.956;2023-02-28T10:41:43;3.35;;;1.40;;
13698;SDS011;6921;53.642;9.956;2023-02-28T10:43:46;1.75;;;1.63;;
13698;SDS011;6921;53.642;9.956;2023-02-28T10:45:55;5.72;;;1.85;;
13698;SDS011;6921;53.642;9.956;2023-02-28T10:48:05;2.85;;;1.55;;
13698;SDS011;6921;53.642;9.956;2023-02-28T10:50:29;1.98;;;1.40;;
13698;SDS011;6921;53.642;9.956;2023-02-28T10:52:45;2.17;;;1.60;;
13698;SDS011;6921;53.642;9.956;2023-02-28T10:54:48;2.55;;;1.73;;
13698;SDS011;6921;53.642;9.956;2023-02-28T10:57:08;1.63;;;1.40;;
13698;SDS011;6921;53.642;9.956;2023-02-28T10:59:27;2.30;;;1.60;;
13698;SDS011;6921;53.642;9.956;2023-02-28T11:01:36;2.85;;;1.92;;
13698;SDS011;6921;53.642;9.956;2023-02-28T11:03:39;3.45;;;1.52;;
13698;SDS011;6921;53.642;9.956;2023-02-28T11:05:43;2.10;;;1.60;;
13698;SDS011;6921;53.642;9.956;2023-02-28T11:07:50;1.70;;;1.60;;
13698;SDS011;6921;53.642;9.956;2023-02-28T11:09:54;3.92;;;1.60;;
13698;SDS011;6921;53.642;9.956;2023-02-28T11:11:58;4.05;;;1.50;;
13698;SDS011;6921;53.642;9.956;2023-02-28T11:14:03;1.60;;;1.50;;
13698;SDS011;6921;53.642;9.956;2023-02-28T11:16:07;3.05;;;1.70;;
13698;SDS011;6921;53.642;9.956;2023-02-28T11:18:20;2.30;;;1.38;;
13698;SDS011;6921;53.642;9.956;2023-02-28T11:20:27;2.38;;;1.60;;
13698;SDS011;6921;53.642;9.956;2023-02-28T11:22:35;1.77;;;1.60;;
13698;SDS011;6921;53.642;9.956;2023-02-28T11:24:41;1.55;;;1.45;;
13698;SDS011;6921;53.642;9.956;2023-02-28T11:26:47;2.38;;;1.65;;
13698;SDS011;6921;53.642;9.956;2023-02-28T11:28:51;1.55;;;1.42;;
13698;SDS011;6921;53.642;9.956;2023-02-28T11:31:17;2.60;;;1.80;;
13698;SDS011;6921;53.642;9.956;2023-02-28T11:33:26;1.80;;;1.30;;
13698;SDS011;6921;53.642;9.956;2023-02-28T11:35:33;2.13;;;1.75;;
13698;SDS011;6921;53.642;9.956;2023-02-28T11:37:40;2.83;;;1.70;;
13698;SDS011;6921;53.642;9.956;2023-02-28T11:39:47;4.32;;;1.90;;
13698;SDS011;6921;53.642;9.956;2023-02-28T11:42:02;3.05;;;1.95;;
13698;SDS011;6921;53.642;9.956;2023-02-28T11:46:35;2.45;;;1.70;;
13698;SDS011;6921;53.642;9.956;2023-02-28T11:48:47;1.73;;;1.45;;
13698;SDS011;6921;53.642;9.956;2023-02-28T11:51:06;2.05;;;1.77;;
13698;SDS011;6921;53.642;9.956;2023-02-28T11:53:14;2.97;;;1.58;;
13698;SDS011;6921;53.642;9.956;2023-02-28T11:55:24;2.40;;;1.60;;
13698;SDS011;6921;53.642;9.956;2023-02-28T11:57:36;1.65;;;1.50;;
13698;SDS011;6921;53.642;9.956;2023-02-28T11:59:52;3.67;;;1.88;;
13698;SDS011;6921;53.642;9.956;2023-02-28T12:04:33;2.25;;;1.52;;
13698;SDS011;6921;53.642;9.956;2023-02-28T12:06:51;2.75;;;1.50;;
13698;SDS011;6921;53.642;9.956;2023-02-28T12:09:02;1.50;;;1.40;;
13698;SDS011;6921;53.642;9.956;2023-02-28T12:11:15;2.58;;;1.80;;
13698;SDS011;6921;53.642;9.956;2023-02-28T12:13:29;1.67;;;1.38;;
13698;SDS011;6921;53.642;9.956;2023-02-28T12:18:35;3.55;;;1.70;;
13698;SDS011;6921;53.642;9.956;2023-02-28T12:20:53;1.48;;;1.35;;
13698;SDS011;6921;53.642;9.956;2023-02-28T12:23:10;3.35;;;1.55;;
13698;SDS011;6921;53.642;9.956;2023-02-28T12:25:43;2.67;;;1.58;;
13698;SDS011;6921;53.642;9.956;2023-02-28T12:27:54;2.28;;;1.70;;
13698;SDS011;6921;53.642;9.956;2023-02-28T12:29:59;3.22;;;1.95;;
13698;SDS011;6921;53.642;9.956;2023-02-28T12:32:06;2.10;;;1.70;;
13698;SDS011;6921;53.642;9.956;2023-02-28T12:34:15;2.60;;;1.65;;
13698;SDS011;6921;53.642;9.956;2023-02-28T12:36:24;3.08;;;1.75;;
13698;SDS011;6921;53.642;9.956;2023-02-28T12:38:31;1.90;;;1.58;;
13698;SDS011;6921;53.642;9.956;2023-02-28T12:40:42;2.53;;;1.70;;
13698;SDS011;6921;53.642;9.956;2023-02-28T12:42:49;3.08;;;1.58;;
13698;SDS011;6921;53.642;9.956;2023-02-28T12:44:56;2.25;;;1.60;;
13698;SDS011;6921;53.642;9.956;2023-02-28T12:47:02;1.80;;;1.70;;
13698;SDS011;6921;53.642;9.956;2023-02-28T12:49:10;2.47;;;1.60;;
13698;SDS011;6921;53.642;9.956;2023-02-28T12:51:18;2.42;;;1.58;;
13698;SDS011;6921;53.642;9.956;2023-02-28T12:53:25;1.75;;;1.60;;
13698;SDS011;6921;53.642;9.956;2023-02-28T12:55:35;2.70;;;1.70;;
13698;SDS011;6921;53.642;9.956;2023-02-28T12:57:45;2.63;;;1.60;;
13698;SDS011;6921;53.642;9.956;2023-02-28T12:59:55;3.05;;;1.70;;
13698;SDS011;6921;53.642;9.956;2023-02-28T13:07:30;1.73;;;1.63;;
13698;SDS011;6921;53.642;9.956;2023-02-28T13:09:52;2.80;;;1.80;;
13698;SDS011;6921;53.642;9.956;2023-02-28T13:11:57;2.78;;;1.70;;
13698;SDS011;6921;53.642;9.956;2023-02-28T13:14:01;9.38;;;2.10;;
13698;SDS011;6921;53.642;9.956;2023-02-28T13:16:07;11.65;;;1.98;;